Time;durP1;ratioP1;P1;durP2;ratioP2;P2;SDS_P1;SDS_P2;PMS_P1;PMS_P2;Temp;Humidity;BMP_temperature;BMP_pressure;BME280_temperature;BME280_humidity;BME280_pressure;Samples;Min_cycle;Max_cycle;Signal;HPM_P1;HPM_P2
2022/04/14 00:01:39;;;;;;;5.32;2.78;;;;;;;9.44;36.32;94175.84;4925640;28;20028;-76
2022/04/14 00:04:04;;;;;;;3.53;2.40;;;;;;;9.56;36.00;94189.41;4931607;28;20040;-75
2022/04/14 00:06:30;;;;;;;3.92;2.33;;;;;;;9.50;35.85;94192.44;4927441;28;20028;-77
2022/04/14 00:08:55;;;;;;;2.90;2.20;;;;;;;9.47;35.90;94183.22;4925574;28;20082;-78
2022/04/14 00:11:21;;;;;;;2.38;2.15;;;;;;;9.60;35.88;94194.91;4920209;28;20031;-77
2022/04/14 00:13:46;;;;;;;2.05;1.40;;;;;;;9.45;35.21;94178.19;4928466;28;20501;-78
2022/04/14 00:16:12;;;;;;;3.45;1.60;;;;;;;9.37;35.45;94184.22;4925029;28;20928;-78
2022/04/14 00:18:38;;;;;;;4.13;1.50;;;;;;;9.30;35.58;94201.59;4928144;28;20474;-78
2022/04/14 00:21:03;;;;;;;2.45;1.50;;;;;;;9.36;35.44;94195.13;4943907;28;20894;-78
2022/04/14 00:23:29;;;;;;;4.00;2.03;;;;;;;9.15;35.72;94154.13;4938937;28;20129;-77
2022/04/14 00:25:54;;;;;;;5.25;2.70;;;;;;;9.35;35.78;94186.38;4932870;28;20039;-75
2022/04/14 00:28:19;;;;;;;4.10;2.95;;;;;;;9.27;36.25;94189.72;4930525;28;20422;-76
2022/04/14 00:30:45;;;;;;;4.72;2.60;;;;;;;9.28;36.45;94199.25;4931721;28;20037;-76
2022/04/14 00:33:10;;;;;;;4.35;2.08;;;;;;;9.20;36.39;94181.34;4924471;28;20040;-75
2022/04/14 00:35:36;;;;;;;3.50;2.20;;;;;;;9.25;35.79;94194.53;4928258;28;20039;-78
2022/04/14 00:38:01;;;;;;;6.00;2.45;;;;;;;9.18;36.02;94186.19;4927717;28;20114;-79
2022/04/14 00:40:27;;;;;;;2.95;2.22;;;;;;;9.17;36.12;94192.56;4932247;28;20034;-78
2022/04/14 00:42:52;;;;;;;8.43;2.10;;;;;;;9.16;36.52;94192.84;4924992;28;20415;-76
2022/04/14 00:45:18;;;;;;;6.57;2.47;;;;;;;9.01;36.73;94183.28;4927552;28;20122;-76
2022/04/14 00:47:43;;;;;;;4.28;2.60;;;;;;;9.09;37.00;94195.09;4922225;28;20083;-77
2022/04/14 00:50:09;;;;;;;4.95;2.22;;;;;;;9.04;37.02;94198.63;4930415;28;20442;-77
2022/04/14 00:52:35;;;;;;;4.22;2.95;;;;;;;8.87;37.14;94177.97;4930642;28;20034;-77
2022/04/14 00:55:00;;;;;;;5.95;2.30;;;;;;;8.85;37.24;94176.69;4932058;28;20118;-77
2022/04/14 00:57:26;;;;;;;4.70;2.60;;;;;;;8.89;37.09;94196.25;4927435;28;20050;-78
2022/04/14 00:59:51;;;;;;;4.82;1.98;;;;;;;8.90;36.88;94192.53;4928185;28;20035;-78
2022/04/14 01:02:16;;;;;;;4.70;2.40;;;;;;;8.99;36.79;94196.84;4943464;28;20034;-77
2022/04/14 01:04:43;;;;;;;4.88;3.20;;;;;;;8.99;36.65;94196.84;4928152;28;20038;-77
2022/04/14 01:07:09;;;;;;;5.32;2.88;;;;;;;9.01;36.91;94205.28;4941347;28;20023;-77
2022/04/14 01:09:36;;;;;;;4.72;2.92;;;;;;;8.83;37.38;94181.50;4919735;28;20086;-78
2022/04/14 01:12:03;;;;;;;5.65;3.75;;;;;;;9.06;36.89;94196.44;4930560;28;20588;-78
2022/04/14 01:14:35;;;;;;;7.00;3.53;;;;;;;9.01;37.56;94209.81;4926005;28;20118;-76
2022/04/14 01:17:08;;;;;;;8.00;3.53;;;;;;;9.07;37.02;94202.56;4929506;28;20521;-77
2022/04/14 01:19:34;;;;;;;3.50;2.53;;;;;;;9.03;37.06;94194.41;4928263;28;20503;-78
2022/04/14 01:22:05;;;;;;;4.63;3.38;;;;;;;9.08;37.05;94209.44;4928326;28;20076;-78
2022/04/14 01:24:31;;;;;;;5.80;2.15;;;;;;;8.77;37.53;94187.97;4929938;28;20159;-78
2022/04/14 01:26:59;;;;;;;4.45;2.67;;;;;;;8.93;37.51;94200.69;4925232;28;20585;-78
2022/04/14 01:29:26;;;;;;;5.78;2.72;;;;;;;8.93;37.71;94208.63;4936336;28;20046;-78
2022/04/14 01:31:53;;;;;;;6.35;2.67;;;;;;;8.89;37.80;94209.50;4930757;28;20039;-77
2022/04/14 01:34:18;;;;;;;5.32;2.42;;;;;;;8.75;37.89;94196.22;4930604;29;20371;-77
2022/04/14 01:36:45;;;;;;;3.90;2.75;;;;;;;8.81;38.39;94200.34;4928818;28;20403;-77
2022/04/14 01:39:11;;;;;;;3.72;2.47;;;;;;;8.77;38.36;94187.97;4927382;28;20378;-78
2022/04/14 01:41:46;;;;;;;4.30;2.50;;;;;;;8.77;38.43;94198.56;4928179;28;20468;-77
2022/04/14 01:44:11;;;;;;;3.90;2.38;;;;;;;8.59;38.40;94177.13;4924555;29;20094;-76
2022/04/14 01:46:37;;;;;;;4.32;2.85;;;;;;;8.65;38.63;94203.56;4923894;29;20039;-76
2022/04/14 01:49:04;;;;;;;4.22;2.92;;;;;;;8.50;38.82;94194.78;4931249;28;20545;-76
2022/04/14 01:51:30;;;;;;;8.07;3.50;;;;;;;8.48;38.76;94188.97;4929138;28;20050;-76
2022/04/14 01:53:56;;;;;;;4.72;2.67;;;;;;;8.59;38.55;94213.47;4917153;28;20517;-78
2022/04/14 01:56:22;;;;;;;5.53;3.17;;;;;;;8.38;38.69;94191.00;4929723;28;20043;-75
2022/04/14 01:58:52;;;;;;;7.00;3.33;;;;;;;8.33;38.95;94191.88;4939097;28;20506;-79
2022/04/14 02:01:18;;;;;;;4.30;2.60;;;;;;;8.22;38.78;94184.41;4935432;28;20078;-76
2022/04/14 02:03:44;;;;;;;4.35;2.60;;;;;;;8.44;38.75;94222.44;4926558;28;20507;-76
2022/04/14 02:06:09;;;;;;;5.97;3.08;;;;;;;8.39;38.66;94213.78;4931351;28;20047;-77
2022/04/14 02:08:35;;;;;;;4.80;2.50;;;;;;;8.47;38.56;94227.16;4926809;28;20035;-75
2022/04/14 02:11:02;;;;;;;3.42;2.50;;;;;;;8.44;38.50;94226.97;4934236;28;20039;-79
2022/04/14 02:13:29;;;;;;;6.80;2.88;;;;;;;8.37;38.51;94224.66;4916227;29;20024;-78
2022/04/14 02:15:55;;;;;;;3.95;2.53;;;;;;;8.13;38.36;94182.38;4924824;28;20066;-77
2022/04/14 02:18:20;;;;;;;6.50;2.83;;;;;;;8.39;38.49;94222.53;4923461;28;21370;-78
2022/04/14 02:20:45;;;;;;;3.97;2.70;;;;;;;8.40;38.52;94218.81;4928131;28;20039;-76
2022/04/14 02:23:12;;;;;;;5.75;3.10;;;;;;;8.44;38.37;94217.16;4928240;28;20036;-77
2022/04/14 02:25:38;;;;;;;5.05;2.88;;;;;;;8.40;38.35;94194.16;4926567;28;20039;-78
2022/04/14 02:28:03;;;;;;;6.28;4.22;;;;;;;8.54;38.03;94211.69;4925738;28;20189;-78
2022/04/14 02:30:29;;;;;;;5.03;3.13;;;;;;;8.44;38.70;94206.56;4929182;28;20050;-78
2022/04/14 02:32:54;;;;;;;4.90;3.20;;;;;;;8.45;38.88;94202.81;4929513;28;20051;-78
2022/04/14 02:35:20;;;;;;;5.10;2.63;;;;;;;8.25;38.82;94175.84;4926859;28;20494;-78
2022/04/14 02:37:45;;;;;;;7.18;3.50;;;;;;;8.34;38.86;94185.50;4923008;28;20107;-74
2022/04/14 02:40:11;;;;;;;4.50;3.35;;;;;;;8.27;39.21;94174.47;4929313;28;20054;-76
2022/04/14 02:42:36;;;;;;;5.55;3.05;;;;;;;8.36;39.19;94196.63;4919058;28;20054;-77
2022/04/14 02:45:02;;;;;;;5.22;3.50;;;;;;;8.31;39.34;94207.31;4929251;28;20502;-76
2022/04/14 02:47:27;;;;;;;6.78;3.55;;;;;;;8.21;39.50;94204.81;4923663;28;20040;-76
2022/04/14 02:49:53;;;;;;;4.38;2.65;;;;;;;8.15;39.59;94211.25;4928633;28;20490;-78
2022/04/14 02:52:18;;;;;;;6.05;2.67;;;;;;;8.14;39.72;94220.25;4920837;28;20031;-78
2022/04/14 02:54:44;;;;;;;4.30;2.13;;;;;;;8.08;39.51;94208.16;4926182;28;20032;-79
2022/04/14 02:57:09;;;;;;;3.72;2.22;;;;;;;7.84;39.90;94183.59;4923995;28;20602;-78
2022/04/14 02:59:36;;;;;;;2.60;2.10;;;;;;;7.86;40.11;94195.50;4929370;28;20063;-78
2022/04/14 03:02:02;;;;;;;3.00;2.40;;;;;;;7.92;40.20;94226.16;4923598;28;20532;-79
2022/04/14 03:04:29;;;;;;;4.35;3.15;;;;;;;7.87;40.24;94214.84;4930207;29;20121;-78
2022/04/14 03:06:55;;;;;;;3.63;2.60;;;;;;;7.98;40.03;94234.78;4924306;28;20115;-78
2022/04/14 03:09:21;;;;;;;5.55;2.85;;;;;;;7.91;40.24;94229.06;4929599;28;20383;-78
2022/04/14 03:11:46;;;;;;;3.40;2.40;;;;;;;7.81;40.21;94206.16;4933934;28;20044;-78
2022/04/14 03:14:11;;;;;;;5.28;2.90;;;;;;;7.92;40.02;94217.41;4927058;28;20398;-76
2022/04/14 03:16:37;;;;;;;5.57;3.80;;;;;;;7.89;40.03;94210.03;4926278;28;20036;-78
2022/04/14 03:19:02;;;;;;;13.65;3.80;;;;;;;7.92;40.16;94210.25;4942543;28;20051;-78
2022/04/14 03:21:27;;;;;;;6.25;3.00;;;;;;;7.77;40.27;94189.28;4923202;28;20035;-77
2022/04/14 03:23:53;;;;;;;4.63;3.22;;;;;;;7.78;40.39;94198.00;4929490;28;20062;-78
2022/04/14 03:26:18;;;;;;;5.72;2.83;;;;;;;7.73;40.26;94191.69;4924094;28;20550;-77
2022/04/14 03:28:43;;;;;;;5.20;2.95;;;;;;;7.78;40.27;94211.25;4936247;28;20109;-76
2022/04/14 03:31:10;;;;;;;7.15;3.58;;;;;;;7.65;40.14;94194.94;4928737;28;20059;-77
2022/04/14 03:33:35;;;;;;;4.55;3.10;;;;;;;7.81;40.17;94219.41;4929527;28;20039;-77
2022/04/14 03:36:01;;;;;;;4.28;2.88;;;;;;;7.67;40.24;94206.06;4924513;28;20487;-78
2022/04/14 03:38:26;;;;;;;5.15;2.80;;;;;;;7.72;40.48;94229.03;4924478;28;20069;-77
2022/04/14 03:40:52;;;;;;;7.05;3.33;;;;;;;7.63;40.51;94212.97;4939048;28;20055;-78
2022/04/14 03:43:18;;;;;;;4.53;3.28;;;;;;;7.61;41.06;94236.31;4923147;29;20039;-77
2022/04/14 03:45:47;;;;;;;7.43;3.47;;;;;;;7.56;41.33;94236.38;4928137;28;20482;-76
2022/04/14 03:48:12;;;;;;;5.47;3.58;;;;;;;7.33;41.11;94180.81;4940706;28;20036;-77
2022/04/14 03:50:37;;;;;;;6.13;4.13;;;;;;;7.68;41.42;94247.31;4927270;28;20951;-78
2022/04/14 03:53:03;;;;;;;10.05;4.93;;;;;;;7.52;41.46;94232.72;4923924;28;20051;-78
2022/04/14 03:55:28;;;;;;;6.20;3.83;;;;;;;7.35;41.34;94213.84;4923087;29;20549;-78
2022/04/14 03:57:54;;;;;;;6.15;3.80;;;;;;;7.58;41.63;94231.56;4924744;28;20040;-77
2022/04/14 04:00:19;;;;;;;8.85;4.90;;;;;;;7.51;41.54;94223.19;4926503;28;20032;-77
2022/04/14 04:02:45;;;;;;;4.95;3.10;;;;;;;7.46;41.51;94217.16;4925183;28;20422;-78
2022/04/14 04:05:11;;;;;;;5.55;3.33;;;;;;;7.62;41.57;94243.19;4926767;28;20046;-78
2022/04/14 04:07:37;;;;;;;9.52;4.43;;;;;;;7.14;41.70;94162.28;4930269;28;21132;-77
2022/04/14 04:10:03;;;;;;;9.18;3.45;;;;;;;7.63;41.91;94250.03;4921689;28;20040;-77
2022/04/14 04:12:28;;;;;;;5.85;3.38;;;;;;;7.65;41.47;94237.31;4926935;28;20047;-77
2022/04/14 04:14:54;;;;;;;11.98;3.40;;;;;;;7.46;41.85;94231.19;4921168;28;20704;-78
2022/04/14 04:17:19;;;;;;;8.10;3.60;;;;;;;7.66;41.88;94248.69;4927094;28;20485;-77
2022/04/14 04:19:44;;;;;;;7.85;3.83;;;;;;;7.62;41.96;94237.88;4921823;28;20263;-78
2022/04/14 04:22:10;;;;;;;4.97;4.25;;;;;;;7.73;41.43;94234.06;4936639;28;20106;-77
2022/04/14 04:24:37;;;;;;;7.45;4.20;;;;;;;7.80;42.07;94238.22;4930846;28;20103;-76
2022/04/14 04:27:02;;;;;;;7.55;3.75;;;;;;;7.70;42.16;94223.22;4929925;28;20126;-77
2022/04/14 04:29:28;;;;;;;7.47;4.47;;;;;;;7.21;43.32;94247.34;4928419;28;20044;-78
2022/04/14 04:31:53;;;;;;;13.00;5.28;;;;;;;7.28;43.21;94231.94;4928431;28;20113;-78
2022/04/14 04:34:19;;;;;;;8.55;4.70;;;;;;;7.58;42.94;94260.69;4929954;29;20505;-77
2022/04/14 04:36:44;;;;;;;8.52;5.40;;;;;;;7.95;42.54;94256.56;4925784;28;20126;-77
2022/04/14 04:39:10;;;;;;;10.43;5.45;;;;;;;8.12;41.96;94252.31;4930371;28;21402;-78
2022/04/14 04:41:35;;;;;;;14.07;6.18;;;;;;;7.96;41.91;94215.75;4931110;28;20040;-77
2022/04/14 04:44:00;;;;;;;23.50;6.63;;;;;;;8.41;41.46;94276.03;4929673;28;20565;-78
2022/04/14 04:46:26;;;;;;;10.02;6.25;;;;;;;8.60;40.66;94273.38;4934816;29;20016;-77
2022/04/14 04:48:51;;;;;;;12.88;6.72;;;;;;;8.40;41.16;94289.59;4928668;28;20074;-77
2022/04/14 04:51:17;;;;;;;11.88;6.65;;;;;;;8.10;42.02;94291.59;4927709;28;20822;-77
2022/04/14 04:53:42;;;;;;;14.43;6.95;;;;;;;8.39;41.90;94294.09;4926930;28;20078;-77
2022/04/14 04:56:08;;;;;;;13.40;7.65;;;;;;;8.40;41.46;94311.59;4930617;28;20035;-78
2022/04/14 04:58:33;;;;;;;12.10;7.88;;;;;;;8.73;41.02;94301.00;4928266;28;20022;-77
2022/04/14 05:00:58;;;;;;;14.88;6.97;;;;;;;8.84;40.71;94295.28;4931901;28;20039;-77
2022/04/14 05:03:24;;;;;;;12.68;6.70;;;;;;;8.95;40.34;94286.03;4927728;28;20032;-77
2022/04/14 05:05:49;;;;;;;20.50;8.18;;;;;;;8.28;41.63;94292.66;4945278;28;20147;-78
2022/04/14 05:08:15;;;;;;;16.85;8.82;;;;;;;7.73;43.53;94316.13;4932359;28;20062;-78
2022/04/14 05:10:41;;;;;;;20.02;8.30;;;;;;;7.59;43.98;94317.06;4924151;28;20474;-77
2022/04/14 05:13:07;;;;;;;14.77;8.57;;;;;;;8.34;42.69;94314.56;4932538;28;20053;-78
2022/04/14 05:15:35;;;;;;;13.68;8.70;;;;;;;8.53;41.51;94294.16;4925020;28;20503;-76
2022/04/14 05:18:01;;;;;;;16.67;9.45;;;;;;;7.91;43.42;94324.41;4929573;28;20114;-78
2022/04/14 05:20:26;;;;;;;15.05;8.50;;;;;;;7.90;43.47;94320.97;4926999;28;20086;-78
2022/04/14 05:22:52;;;;;;;15.18;8.82;;;;;;;8.42;42.34;94303.31;4921813;28;20034;-78
2022/04/14 05:25:17;;;;;;;15.35;7.97;;;;;;;8.57;41.77;94298.59;4927347;29;20126;-76
2022/04/14 05:27:42;;;;;;;19.33;9.77;;;;;;;9.03;41.08;94330.50;4938986;28;20510;-79
2022/04/14 05:30:09;;;;;;;16.50;9.27;;;;;;;9.17;40.60;94309.34;4948916;28;20036;-77
2022/04/14 05:32:39;;;;;;;13.00;8.05;;;;;;;9.45;40.28;94324.22;4925603;28;20227;-78
2022/04/14 05:35:07;;;;;;;21.25;8.82;;;;;;;9.55;39.89;94319.81;4943896;28;20145;-78
2022/04/14 05:37:33;;;;;;;21.25;9.52;;;;;;;9.75;40.05;94316.78;4927196;28;20055;-77
2022/04/14 05:39:58;;;;;;;13.85;8.23;;;;;;;9.60;39.44;94314.41;4926304;28;20154;-78
2022/04/14 05:42:24;;;;;;;13.10;9.00;;;;;;;9.76;39.39;94329.78;4929850;28;20587;-77
2022/04/14 05:44:49;;;;;;;16.70;9.00;;;;;;;9.54;39.37;94328.84;4923628;28;20039;-78
2022/04/14 05:47:14;;;;;;;13.40;7.05;;;;;;;9.65;40.01;94325.72;4933472;28;20134;-77
2022/04/14 05:49:40;;;;;;;10.73;7.55;;;;;;;9.86;39.22;94331.44;4932913;28;20479;-77
2022/04/14 05:52:06;;;;;;;15.93;7.78;;;;;;;9.45;40.12;94342.00;4925328;28;20025;-78
2022/04/14 05:54:31;;;;;;;13.50;8.35;;;;;;;9.65;39.85;94346.97;4925137;28;20530;-77
2022/04/14 05:56:57;;;;;;;15.73;7.03;;;;;;;9.20;40.50;94337.16;4929149;28;20043;-78
2022/04/14 05:59:22;;;;;;;13.02;8.13;;;;;;;9.72;39.12;94335.97;4926365;28;20483;-77
2022/04/14 06:01:47;;;;;;;16.77;9.40;;;;;;;9.98;38.78;94341.56;4923415;28;20183;-77
2022/04/14 06:04:13;;;;;;;20.80;9.95;;;;;;;10.24;38.62;94337.31;4925624;28;20039;-77
2022/04/14 06:06:39;;;;;;;22.95;7.97;;;;;;;10.38;38.08;94345.28;4916117;28;20039;-78
2022/04/14 06:09:05;;;;;;;13.18;7.30;;;;;;;9.50;39.53;94318.03;4923649;28;20047;-79
2022/04/14 06:11:30;;;;;;;11.70;5.75;;;;;;;9.11;39.79;94342.34;4924584;28;20028;-78
2022/04/14 06:13:55;;;;;;;11.43;6.38;;;;;;;8.93;39.46;94324.56;4921598;28;20042;-79
2022/04/14 06:16:21;;;;;;;13.65;5.95;;;;;;;9.06;39.65;94329.13;4925169;28;20034;-77
2022/04/14 06:18:46;;;;;;;9.95;6.90;;;;;;;8.71;40.14;94342.94;4923194;28;20067;-77
2022/04/14 06:21:12;;;;;;;8.85;6.20;;;;;;;9.04;40.10;94352.53;4932741;28;20074;-77
2022/04/14 06:23:37;;;;;;;13.35;7.35;;;;;;;9.18;39.51;94332.16;4927196;28;20075;-78
2022/04/14 06:26:03;;;;;;;8.68;5.90;;;;;;;9.02;39.79;94341.41;4927021;28;20123;-77
2022/04/14 06:28:29;;;;;;;10.30;7.38;;;;;;;9.09;40.04;94323.25;4922821;28;20074;-77
2022/04/14 06:30:56;;;;;;;15.20;7.20;;;;;;;9.27;40.36;94327.75;4921778;28;20157;-76
2022/04/14 06:33:23;;;;;;;11.05;6.38;;;;;;;9.19;40.30;94351.50;4919087;28;20039;-76
2022/04/14 06:35:49;;;;;;;15.02;7.07;;;;;;;9.12;39.64;94343.13;4921107;28;20047;-75
2022/04/14 06:38:15;;;;;;;10.13;6.35;;;;;;;9.68;39.36;94356.22;4922230;28;20036;-76
2022/04/14 06:40:41;;;;;;;30.83;16.35;;;;;;;9.94;38.22;94352.00;4922189;28;20035;-76
2022/04/14 06:43:06;;;;;;;11.30;7.53;;;;;;;9.74;37.93;94355.03;4920148;28;20609;-76
2022/04/14 06:45:32;;;;;;;11.73;6.13;;;;;;;9.84;38.42;94350.31;4920310;28;20423;-76
2022/04/14 06:47:57;;;;;;;10.55;6.32;;;;;;;9.75;38.09;94361.94;4918577;28;20064;-76
2022/04/14 06:50:23;;;;;;;14.95;6.75;;;;;;;10.19;37.79;94351.50;4922050;28;20023;-77
2022/04/14 06:52:49;;;;;;;9.20;6.63;;;;;;;10.15;37.13;94357.69;4924206;28;20023;-76
2022/04/14 06:55:18;;;;;;;6.45;5.43;;;;;;;10.46;37.24;94349.91;4921400;29;20390;-76
2022/04/14 06:57:44;;;;;;;12.75;6.13;;;;;;;10.47;36.54;94331.00;4929432;28;20035;-76
2022/04/14 07:00:10;;;;;;;10.18;5.35;;;;;;;10.61;36.54;94330.97;4923535;28;20561;-76
2022/04/14 07:02:45;;;;;;;9.15;6.50;;;;;;;11.27;36.22;94345.38;4911915;28;20038;-76
2022/04/14 07:05:18;;;;;;;8.50;6.28;;;;;;;11.64;34.93;94360.97;4928374;28;20078;-75
2022/04/14 07:07:44;;;;;;;10.45;6.25;;;;;;;10.65;36.08;94315.97;4938915;28;20383;-76
2022/04/14 07:10:12;;;;;;;8.90;4.88;;;;;;;10.65;36.18;94358.53;4924041;28;20028;-76
2022/04/14 07:12:38;;;;;;;9.38;5.22;;;;;;;10.87;36.31;94371.06;4924688;28;20039;-76
2022/04/14 07:15:05;;;;;;;9.07;5.38;;;;;;;10.46;36.18;94352.59;4914709;28;20933;-76
2022/04/14 07:17:30;;;;;;;6.28;4.47;;;;;;;11.27;35.24;94366.69;4926024;28;20227;-76
2022/04/14 07:19:57;;;;;;;11.05;5.45;;;;;;;11.59;33.98;94367.22;4919253;28;20600;-76
2022/04/14 07:22:23;;;;;;;6.57;4.72;;;;;;;11.31;34.78;94352.44;4921196;28;20027;-76
2022/04/14 07:24:49;;;;;;;10.38;5.07;;;;;;;11.48;34.95;94375.75;4924899;28;20057;-76
2022/04/14 07:27:20;;;;;;;7.47;4.85;;;;;;;11.36;34.59;94376.28;4920983;28;20054;-76
2022/04/14 07:29:46;;;;;;;9.82;5.70;;;;;;;11.14;35.50;94371.78;4929674;28;20036;-76
2022/04/14 07:32:12;;;;;;;9.20;5.28;;;;;;;11.68;34.92;94359.28;4922430;28;20039;-78
2022/04/14 07:34:38;;;;;;;31.60;7.30;;;;;;;11.96;34.80;94366.00;4900438;29;20035;-77
2022/04/14 07:37:03;;;;;;;7.57;5.22;;;;;;;12.20;34.23;94333.59;4922662;28;20510;-77
2022/04/14 07:39:29;;;;;;;7.00;4.88;;;;;;;12.47;33.70;94344.00;4922758;28;20067;-78
2022/04/14 07:41:54;;;;;;;6.82;5.03;;;;;;;12.49;33.08;94346.38;4926365;28;20036;-78
2022/04/14 07:44:20;;;;;;;9.65;5.05;;;;;;;12.32;33.82;94346.34;4922160;28;20418;-77
2022/04/14 07:46:45;;;;;;;7.85;5.50;;;;;;;12.56;33.25;94333.34;4928696;28;20031;-77
2022/04/14 07:49:11;;;;;;;6.57;4.25;;;;;;;12.72;32.94;94339.81;4922655;29;20161;-77
2022/04/14 07:51:36;;;;;;;9.50;5.07;;;;;;;12.74;33.37;94332.31;4924563;28;20130;-78
2022/04/14 07:54:01;;;;;;;16.13;5.93;;;;;;;12.71;32.76;94327.56;4926849;28;20071;-78
2022/04/14 07:56:27;;;;;;;9.15;5.30;;;;;;;12.48;32.32;94308.22;4924959;28;20552;-77
2022/04/14 07:58:52;;;;;;;10.65;6.22;;;;;;;12.57;33.55;94321.56;4930365;28;20032;-78
2022/04/14 08:01:21;;;;;;;13.00;6.95;;;;;;;11.91;33.38;94333.34;4922988;28;20173;-77
2022/04/14 08:03:47;;;;;;;9.85;5.53;;;;;;;12.20;32.88;94330.16;4919127;28;20401;-77
2022/04/14 08:06:13;;;;;;;7.50;5.15;;;;;;;12.16;32.71;94339.88;4924325;28;20449;-77
2022/04/14 08:08:40;;;;;;;9.27;5.00;;;;;;;11.66;34.31;94334.81;4936622;28;20142;-78
2022/04/14 08:11:10;;;;;;;8.93;5.50;;;;;;;11.58;34.54;94340.91;4929840;28;20639;-77
2022/04/14 08:13:38;;;;;;;9.80;5.00;;;;;;;11.55;34.56;94322.84;4926420;28;20511;-77
2022/04/14 08:16:09;;;;;;;11.20;5.38;;;;;;;11.64;34.10;94352.22;4934764;28;20046;-77
2022/04/14 08:18:39;;;;;;;8.63;5.28;;;;;;;11.99;32.97;94349.38;4930787;28;20097;-78
2022/04/14 08:21:06;;;;;;;9.05;6.35;;;;;;;12.32;32.61;94327.69;4928224;28;20035;-77
2022/04/14 08:23:38;;;;;;;8.85;5.47;;;;;;;12.38;32.82;94334.41;4926156;28;20094;-77
2022/04/14 08:26:04;;;;;;;13.35;6.60;;;;;;;12.16;32.59;94323.88;4933142;28;20071;-78
2022/04/14 08:28:30;;;;;;;11.93;7.30;;;;;;;11.99;32.76;94296.06;4931641;28;20594;-78
2022/04/14 08:30:56;;;;;;;8.43;5.47;;;;;;;11.86;32.29;94334.28;4932952;28;20039;-77
2022/04/14 08:33:23;;;;;;;8.05;5.45;;;;;;;12.29;32.24;94314.94;4928457;28;20073;-78
2022/04/14 08:35:49;;;;;;;9.02;5.38;;;;;;;12.85;31.31;94338.91;4929422;28;20039;-77
2022/04/14 08:38:15;;;;;;;8.20;5.53;;;;;;;13.04;31.41;94332.44;4932902;28;20120;-78
2022/04/14 08:40:41;;;;;;;8.15;4.53;;;;;;;12.51;31.03;94322.06;4931975;28;20436;-78
2022/04/14 08:43:09;;;;;;;6.32;4.80;;;;;;;12.10;30.79;94322.44;4930106;28;20027;-77
2022/04/14 08:45:39;;;;;;;7.80;5.05;;;;;;;12.51;30.66;94333.50;4929450;28;20040;-78
2022/04/14 08:48:05;;;;;;;8.30;4.50;;;;;;;12.60;30.51;94317.53;4945241;28;20078;-78
2022/04/14 08:50:32;;;;;;;9.68;6.15;;;;;;;12.38;31.97;94329.88;4925858;28;20118;-77
2022/04/14 08:52:58;;;;;;;8.77;6.10;;;;;;;12.50;31.83;94304.47;4947337;28;20035;-77
2022/04/14 08:55:24;;;;;;;8.88;5.45;;;;;;;13.06;30.75;94298.97;4937770;28;20418;-78
2022/04/14 08:57:50;;;;;;;7.90;5.18;;;;;;;12.59;31.91;94307.94;4930809;28;20040;-78
2022/04/14 09:00:20;;;;;;;11.90;5.75;;;;;;;12.91;31.20;94322.72;4926515;28;20435;-77
2022/04/14 09:02:46;;;;;;;7.80;5.25;;;;;;;13.32;30.35;94314.97;4934332;28;20502;-78
2022/04/14 09:05:14;;;;;;;13.23;6.50;;;;;;;13.47;30.29;94301.09;4924340;28;20044;-78
2022/04/14 09:07:39;;;;;;;20.90;9.57;;;;;;;13.23;29.76;94303.53;4929104;28;20153;-77
2022/04/14 09:10:06;;;;;;;9.40;6.25;;;;;;;13.24;30.20;94302.44;4922069;29;20019;-78
2022/04/14 09:12:32;;;;;;;9.18;5.72;;;;;;;12.97;30.32;94287.53;4930608;28;20119;-76
2022/04/14 09:14:59;;;;;;;8.88;5.78;;;;;;;13.55;30.80;94296.81;4924147;28;20041;-76
2022/04/14 09:17:26;;;;;;;12.82;7.22;;;;;;;13.89;29.78;94298.59;4926202;28;20721;-78
2022/04/14 09:19:51;;;;;;;10.38;6.10;;;;;;;13.58;30.56;94301.53;4927412;28;20455;-78
2022/04/14 09:22:17;;;;;;;12.55;7.00;;;;;;;13.48;29.33;94302.69;4936559;28;20794;-78
2022/04/14 09:24:47;;;;;;;10.90;6.00;;;;;;;13.38;29.15;94288.88;4926573;28;20059;-78
2022/04/14 09:27:26;;;;;;;9.48;5.45;;;;;;;13.67;29.57;94284.41;4927528;28;20039;-78
2022/04/14 09:29:54;;;;;;;12.98;5.90;;;;;;;13.44;30.15;94290.28;4947302;28;20036;-77
2022/04/14 09:32:37;;;;;;;8.00;6.18;;;;;;;12.86;30.94;94291.63;4925624;28;20043;-77
2022/04/14 09:35:23;;;;;;;10.73;6.13;;;;;;;13.01;31.06;94287.69;4931910;29;20051;-77
2022/04/14 09:38:03;;;;;;;10.82;6.68;;;;;;;12.93;31.14;94291.94;4923818;28;20047;-77
2022/04/14 09:40:30;;;;;;;10.43;5.95;;;;;;;13.02;30.93;94265.22;4926731;28;20031;-77
2022/04/14 09:42:56;;;;;;;12.15;6.03;;;;;;;13.38;30.70;94289.66;4921070;28;20079;-76
2022/04/14 09:45:22;;;;;;;12.10;6.32;;;;;;;13.12;30.26;94286.25;4929026;28;20059;-77
2022/04/14 09:47:48;;;;;;;9.30;4.85;;;;;;;13.55;30.33;94262.88;4925815;28;20142;-77
2022/04/14 09:50:43;;;;;;;8.88;4.40;;;;;;;14.15;30.75;94272.53;4930829;28;20514;-78
2022/04/14 09:53:18;;;;;;;15.48;4.63;;;;;;;14.04;29.76;94276.66;4927071;28;20051;-77
2022/04/14 09:55:50;;;;;;;10.85;4.30;;;;;;;13.46;30.14;94283.50;4923689;28;20027;-77
2022/04/14 09:58:20;;;;;;;8.80;4.43;;;;;;;13.32;30.27;94261.53;4928177;29;20030;-76
2022/04/14 10:00:51;;;;;;;5.68;4.40;;;;;;;13.32;30.23;94277.56;4939027;28;20486;-77
2022/04/14 10:03:19;;;;;;;4.55;2.78;;;;;;;13.77;30.82;94266.44;4930243;28;20078;-77
2022/04/14 10:05:46;;;;;;;5.13;3.83;;;;;;;13.18;29.79;94242.25;4925541;28;20086;-77
2022/04/14 10:08:13;;;;;;;7.93;3.25;;;;;;;13.46;29.74;94269.34;4930086;28;20113;-77
2022/04/14 10:10:41;;;;;;;5.55;3.22;;;;;;;13.39;29.68;94237.81;4929784;28;20606;-76
2022/04/14 10:13:32;;;;;;;5.82;3.97;;;;;;;13.48;29.55;94261.81;4926985;29;20020;-77
2022/04/14 10:15:58;;;;;;;6.72;3.63;;;;;;;13.79;29.30;94258.88;4923667;28;20051;-77
2022/04/14 10:18:23;;;;;;;7.35;3.97;;;;;;;13.46;28.79;94245.31;4928087;28;20387;-77
2022/04/14 10:20:49;;;;;;;4.75;3.78;;;;;;;13.50;28.55;94232.88;4921753;28;20400;-78
2022/04/14 10:23:15;;;;;;;4.68;3.35;;;;;;;13.64;29.00;94255.63;4929252;28;20111;-76
2022/04/14 10:25:42;;;;;;;4.90;3.47;;;;;;;14.06;30.13;94239.69;4904604;28;20043;-77
2022/04/14 10:28:16;;;;;;;4.90;3.15;;;;;;;14.29;29.72;94251.66;4908868;29;20110;-77
2022/04/14 10:30:52;;;;;;;4.50;3.22;;;;;;;14.27;28.57;94256.56;4911228;29;20044;-77
2022/04/14 10:33:18;;;;;;;5.00;3.08;;;;;;;14.03;27.72;94254.50;4906768;29;20036;-77
2022/04/14 10:35:45;;;;;;;8.02;3.55;;;;;;;14.34;29.25;94248.78;4907171;28;20059;-77
2022/04/14 10:38:17;;;;;;;4.47;2.90;;;;;;;13.95;28.38;94236.63;4909166;28;20047;-77
2022/04/14 10:40:47;;;;;;;4.97;3.42;;;;;;;13.97;28.59;94230.94;4923194;28;20042;-77
2022/04/14 10:43:17;;;;;;;7.68;4.47;;;;;;;13.95;28.91;94251.88;4907801;29;20049;-78
2022/04/14 10:45:55;;;;;;;4.75;3.00;;;;;;;13.94;28.26;94234.25;4910003;28;20043;-77
2022/04/14 10:48:27;;;;;;;6.32;3.45;;;;;;;14.24;28.08;94248.38;4910136;29;20055;-77
2022/04/14 10:51:23;;;;;;;5.88;3.20;;;;;;;14.54;28.10;94256.06;4904063;29;20139;-77
2022/04/14 10:54:02;;;;;;;4.95;2.50;;;;;;;14.43;28.10;94252.19;4901057;28;20046;-77
2022/04/14 10:56:33;;;;;;;5.32;3.45;;;;;;;14.82;27.23;94247.50;4926223;28;20044;-77
2022/04/14 10:59:00;;;;;;;2.97;2.05;;;;;;;14.60;28.21;94238.72;4905191;28;21120;-77
2022/04/14 11:01:47;;;;;;;5.85;3.33;;;;;;;14.49;27.67;94248.22;4919878;28;20118;-77
2022/04/14 11:04:24;;;;;;;4.63;2.90;;;;;;;14.34;28.28;94222.03;4906580;28;20042;-77
2022/04/14 11:06:51;;;;;;;3.92;3.00;;;;;;;14.25;28.42;94234.69;4923360;28;20036;-77
2022/04/14 11:09:41;;;;;;;5.32;3.38;;;;;;;14.42;28.20;94245.25;4905425;28;20063;-78
2022/04/14 11:12:10;;;;;;;4.68;3.65;;;;;;;14.45;28.03;94239.28;4905941;28;20071;-78
2022/04/14 11:14:37;;;;;;;6.97;3.47;;;;;;;14.50;28.31;94236.41;4903825;28;20567;-77
2022/04/14 11:17:03;;;;;;;7.82;4.18;;;;;;;14.48;28.10;94241.28;4904575;28;20115;-77
2022/04/14 11:19:30;;;;;;;5.95;3.47;;;;;;;14.68;27.97;94236.28;4900405;29;20058;-77
2022/04/14 11:22:01;;;;;;;6.75;3.40;;;;;;;14.53;27.86;94238.44;4900376;29;20040;-77
2022/04/14 11:24:36;;;;;;;5.32;2.90;;;;;;;15.20;29.67;94229.34;4901718;29;20056;-75
2022/04/14 11:27:09;;;;;;;10.05;4.80;;;;;;;15.11;28.14;94236.66;4908915;28;20447;-76
2022/04/14 11:29:35;;;;;;;5.03;3.15;;;;;;;15.11;28.20;94215.22;4911017;28;21057;-76
2022/04/14 11:32:06;;;;;;;6.22;3.45;;;;;;;15.07;28.08;94230.41;4907037;28;20044;-77
2022/04/14 11:34:35;;;;;;;4.50;2.70;;;;;;;14.50;27.24;94209.63;4903052;29;20057;-75
2022/04/14 11:37:01;;;;;;;4.00;2.92;;;;;;;14.86;27.12;94235.03;4906082;29;20620;-78